Time;durP1;ratioP1;P1;durP2;ratioP2;P2;SDS_P1;SDS_P2;PMS_P1;PMS_P2;Temp;Humidity;BMP_temperature;BMP_pressure;BME280_temperature;BME280_humidity;BME280_pressure;Samples;Min_cycle;Max_cycle;Signal;HPM_P1;HPM_P2
2022/02/19 00:01:49;;;;;;;12.15;2.83;;;5.40;99.90;;;;;;4992730;28;20050;-83
2022/02/19 00:04:15;;;;;;;8.25;3.80;;;5.40;99.90;;;;;;5020909;28;20037;-82
2022/02/19 00:06:40;;;;;;;10.05;2.55;;;5.50;99.90;;;;;;5019243;28;20518;-80
2022/02/19 00:09:06;;;;;;;11.07;2.45;;;5.40;99.90;;;;;;5029248;28;20068;-80
2022/02/19 00:11:32;;;;;;;4.18;2.60;;;5.20;99.90;;;;;;4996582;28;20034;-82
2022/02/19 00:13:58;;;;;;;11.27;2.80;;;5.10;99.90;;;;;;5035258;28;20049;-78
2022/02/19 00:16:24;;;;;;;;;;;5.00;99.90;;;;;;5012192;28;20048;-80
2022/02/19 00:18:50;;;;;;;7.97;2.72;;;4.80;99.90;;;;;;5040743;28;19920;-82
2022/02/19 00:21:17;;;;;;;5.95;4.05;;;4.40;99.90;;;;;;5013067;28;21884;-81
2022/02/19 00:23:43;;;;;;;5.63;3.53;;;4.20;99.90;;;;;;5027483;28;20057;-80
2022/02/19 00:26:10;;;;;;;13.52;3.85;;;4.10;99.90;;;;;;5030011;28;20041;-80
2022/02/19 00:28:36;;;;;;;5.13;2.22;;;4.60;99.90;;;;;;5027601;28;20044;-80
2022/02/19 00:31:01;;;;;;;6.43;3.05;;;4.20;99.90;;;;;;5036691;28;20099;-82
2022/02/19 00:33:28;;;;;;;5.60;2.13;;;4.00;99.90;;;;;;5044987;28;20518;-81
2022/02/19 00:36:03;;;;;;;4.78;1.90;;;3.90;99.90;;;;;;5028667;28;20395;-78
2022/02/19 00:38:29;;;;;;;6.00;2.75;;;3.90;99.90;;;;;;5053821;28;20041;-80
2022/02/19 00:40:54;;;;;;;8.07;1.95;;;3.80;99.90;;;;;;5048875;28;20434;-80
2022/02/19 00:43:20;;;;;;;7.55;2.47;;;4.40;99.90;;;;;;5030757;28;20045;-82
2022/02/19 00:45:48;;;;;;;6.53;2.35;;;3.70;99.90;;;;;;5031497;28;20079;-82
2022/02/19 00:48:14;;;;;;;2.35;1.30;;;4.00;99.90;;;;;;5014253;28;20084;-81
2022/02/19 00:50:40;;;;;;;0.60;0.60;;;3.60;99.90;;;;;;5033932;28;20053;-82
2022/02/19 00:53:06;;;;;;;0.73;0.73;;;3.60;99.90;;;;;;5013639;28;20091;-80
2022/02/19 00:55:31;;;;;;;0.68;0.68;;;3.60;99.90;;;;;;5031339;28;20053;-80
2022/02/19 00:57:57;;;;;;;5.57;2.05;;;3.60;99.90;;;;;;5038074;28;20049;-82
2022/02/19 01:00:23;;;;;;;0.80;0.80;;;3.60;99.90;;;;;;5041491;28;20037;-82
2022/02/19 01:02:48;;;;;;;0.65;0.65;;;3.70;99.90;;;;;;5010688;28;20087;-82
2022/02/19 01:05:14;;;;;;;0.80;0.80;;;3.70;99.90;;;;;;5033940;28;20078;-81
2022/02/19 01:07:40;;;;;;;0.70;0.70;;;3.90;99.90;;;;;;5033865;28;20164;-81
2022/02/19 01:10:09;;;;;;;0.75;0.75;;;3.70;99.90;;;;;;5014026;28;20045;-80
2022/02/19 01:12:35;;;;;;;0.70;0.70;;;3.70;99.90;;;;;;5014465;28;20037;-81
2022/02/19 01:15:01;;;;;;;0.60;0.60;;;4.30;99.90;;;;;;5029514;28;20048;-81
2022/02/19 01:17:28;;;;;;;0.68;0.68;;;3.70;99.90;;;;;;5030849;28;20041;-82
2022/02/19 01:19:53;;;;;;;0.60;0.60;;;3.70;99.90;;;;;;5033139;28;20060;-82
2022/02/19 01:22:19;;;;;;;0.70;0.70;;;3.80;99.90;;;;;;5030777;28;20037;-82
2022/02/19 01:24:45;;;;;;;0.60;0.60;;;3.90;99.90;;;;;;5035596;28;20451;-84
2022/02/19 01:27:10;;;;;;;0.60;0.60;;;3.90;99.90;;;;;;5034988;28;20095;-83
2022/02/19 01:29:36;;;;;;;0.60;0.60;;;3.90;99.90;;;;;;5029879;28;20411;-80
2022/02/19 01:32:02;;;;;;;0.70;0.70;;;4.00;99.90;;;;;;5014334;28;20072;-84
2022/02/19 01:34:28;;;;;;;0.73;0.73;;;4.00;99.90;;;;;;5030361;28;20057;-82
2022/02/19 01:36:53;;;;;;;0.70;0.70;;;4.00;99.90;;;;;;5031338;28;20079;-80
2022/02/19 01:39:19;;;;;;;0.50;0.50;;;3.70;99.90;;;;;;5030077;28;20157;-80
2022/02/19 01:41:45;;;;;;;0.70;0.70;;;3.20;99.90;;;;;;5031832;28;20051;-83
2022/02/19 01:44:13;;;;;;;0.63;0.63;;;2.90;99.90;;;;;;5031748;28;20044;-80
2022/02/19 01:46:39;;;;;;;0.60;0.60;;;2.80;99.90;;;;;;5030478;28;20491;-84
2022/02/19 01:49:06;;;;;;;0.60;0.60;;;3.30;99.90;;;;;;5029561;28;20494;-81
2022/02/19 01:51:36;;;;;;;0.60;0.60;;;2.80;99.90;;;;;;5028456;28;20115;-82
2022/02/19 01:54:06;;;;;;;0.65;0.65;;;3.00;99.90;;;;;;5030383;28;20046;-83
2022/02/19 01:56:33;;;;;;;0.63;0.63;;;3.00;99.90;;;;;;5029223;28;20042;-82
2022/02/19 01:58:59;;;;;;;0.70;0.70;;;3.20;99.90;;;;;;5030119;28;20080;-83
2022/02/19 02:01:24;;;;;;;0.70;0.70;;;3.30;99.90;;;;;;5026175;28;20049;-82
2022/02/19 02:03:50;;;;;;;0.75;0.75;;;3.30;99.90;;;;;;5029738;28;20041;-80
2022/02/19 02:06:18;;;;;;;0.70;0.70;;;4.00;99.90;;;;;;5025477;28;20533;-81
2022/02/19 02:08:44;;;;;;;0.75;0.75;;;3.40;99.90;;;;;;5030032;28;20041;-82
2022/02/19 02:11:10;;;;;;;0.60;0.60;;;4.10;99.90;;;;;;5024737;28;20386;-83
2022/02/19 02:13:36;;;;;;;0.65;0.65;;;3.30;99.90;;;;;;5029700;28;20513;-83
2022/02/19 02:16:02;;;;;;;0.60;0.60;;;3.30;99.90;;;;;;5036488;28;20033;-83
2022/02/19 02:18:27;;;;;;;0.70;0.70;;;3.20;99.90;;;;;;5017280;28;20072;-81
2022/02/19 02:20:53;;;;;;;0.75;0.75;;;3.30;99.90;;;;;;5034801;28;20049;-83
2022/02/19 02:23:20;;;;;;;0.80;0.80;;;3.30;99.90;;;;;;5036347;28;20056;-84
2022/02/19 02:25:46;;;;;;;0.60;0.60;;;3.40;99.90;;;;;;5035503;28;20049;-82
2022/02/19 02:28:11;;;;;;;0.63;0.63;;;3.40;99.90;;;;;;5017269;28;20043;-84
2022/02/19 02:30:38;;;;;;;0.90;0.90;;;3.40;99.90;;;;;;5019768;28;20049;-82
2022/02/19 02:33:12;;;;;;;0.60;0.60;;;3.20;99.90;;;;;;5028315;28;20112;-84
2022/02/19 02:35:38;;;;;;;0.68;0.68;;;3.10;99.90;;;;;;5016814;28;20048;-84
2022/02/19 02:38:05;;;;;;;0.70;0.70;;;2.90;99.90;;;;;;5041602;28;20053;-81
2022/02/19 02:40:32;;;;;;;0.70;0.70;;;2.80;99.90;;;;;;5016543;28;20043;-83
2022/02/19 02:42:57;;;;;;;0.70;0.70;;;2.70;99.90;;;;;;5018962;28;20038;-83
2022/02/19 02:45:24;;;;;;;0.60;0.60;;;2.70;99.90;;;;;;5035424;28;20041;-82
2022/02/19 02:47:51;;;;;;;0.70;0.70;;;2.80;99.90;;;;;;5033759;28;20073;-84
2022/02/19 02:50:17;;;;;;;0.77;0.77;;;2.80;99.90;;;;;;5035206;28;20041;-84
2022/02/19 02:52:43;;;;;;;0.70;0.70;;;2.80;99.90;;;;;;5032685;28;20098;-84
2022/02/19 02:55:11;;;;;;;0.60;0.60;;;3.10;99.90;;;;;;5036179;28;20045;-84
2022/02/19 02:57:37;;;;;;;0.80;0.80;;;2.90;99.90;;;;;;5038108;28;20087;-84
2022/02/19 03:00:06;;;;;;;0.70;0.70;;;3.00;99.90;;;;;;5022311;28;20056;-86
2022/02/19 03:02:34;;;;;;;0.70;0.70;;;3.00;99.90;;;;;;5034755;28;20049;-84
2022/02/19 03:05:01;;;;;;;0.77;0.77;;;3.10;99.90;;;;;;5033408;28;20041;-82
2022/02/19 03:07:27;;;;;;;0.60;0.60;;;3.10;99.90;;;;;;5038455;28;20060;-83
2022/02/19 03:09:53;;;;;;;0.80;0.80;;;3.10;99.90;;;;;;5036853;28;20045;-85
2022/02/19 03:12:18;;;;;;;0.70;0.70;;;3.70;99.90;;;;;;5031787;28;20391;-85
2022/02/19 03:14:44;;;;;;;0.68;0.68;;;3.10;99.90;;;;;;5033505;28;20041;-85
2022/02/19 03:17:10;;;;;;;0.70;0.70;;;3.10;99.90;;;;;;5034211;28;20045;-85
2022/02/19 03:19:36;;;;;;;;;;;3.10;99.90;;;;;;5036091;28;20262;-86
2022/02/19 03:22:01;;;;;;;0.50;0.50;;;3.20;99.90;;;;;;5036667;28;19959;-83
2022/02/19 03:24:28;;;;;;;0.70;0.70;;;3.30;99.90;;;;;;5031979;28;20073;-84
2022/02/19 03:26:54;;;;;;;0.70;0.70;;;3.40;99.90;;;;;;5019182;28;20042;-84
2022/02/19 03:29:20;;;;;;;0.75;0.75;;;3.40;99.90;;;;;;5031562;28;20033;-84
2022/02/19 03:31:45;;;;;;;0.77;0.77;;;3.50;99.90;;;;;;5031501;28;20557;-86
2022/02/19 03:34:11;;;;;;;0.80;0.80;;;3.40;99.90;;;;;;5026481;28;20384;-85
2022/02/19 03:36:37;;;;;;;0.80;0.80;;;3.50;99.90;;;;;;5032738;28;20057;-86
2022/02/19 03:39:03;;;;;;;0.60;0.60;;;4.40;99.90;;;;;;5012078;28;20041;-86
2022/02/19 03:41:28;;;;;;;;;;;3.40;99.90;;;;;;5032062;28;20156;-82
2022/02/19 03:43:55;;;;;;;0.60;0.60;;;4.30;99.90;;;;;;5028888;28;19999;-82
2022/02/19 03:46:21;;;;;;;7.32;1.92;;;3.90;99.90;;;;;;5038552;28;20141;-83
2022/02/19 03:48:46;;;;;;;;;;;3.40;99.90;;;;;;5036102;28;20501;-85
2022/02/19 03:51:12;;;;;;;0.70;0.70;;;3.40;99.90;;;;;;5019070;28;19971;-84
2022/02/19 03:53:38;;;;;;;0.60;0.60;;;3.40;99.90;;;;;;5033479;28;20037;-81
2022/02/19 03:56:04;;;;;;;0.70;0.70;;;3.90;99.90;;;;;;5017104;28;20041;-84
2022/02/19 03:58:30;;;;;;;0.60;0.60;;;3.40;99.90;;;;;;5021701;28;20055;-83
2022/02/19 04:00:55;;;;;;;0.73;0.73;;;3.40;99.90;;;;;;5019213;28;20442;-83
2022/02/19 04:03:21;;;;;;;0.60;0.60;;;3.40;99.90;;;;;;5039391;28;20463;-81
2022/02/19 04:05:47;;;;;;;0.70;0.70;;;3.40;99.90;;;;;;5032901;28;20237;-83
2022/02/19 04:08:13;;;;;;;0.70;0.70;;;3.40;99.90;;;;;;5015762;28;20046;-83
2022/02/19 04:10:39;;;;;;;0.70;0.70;;;3.40;99.90;;;;;;5025981;28;20041;-82
2022/02/19 04:13:05;;;;;;;;;;;3.40;99.90;;;;;;5036329;28;20045;-81
2022/02/19 04:15:31;;;;;;;1.15;0.77;;;3.50;99.90;;;;;;5032902;28;19917;-83
2022/02/19 04:17:56;;;;;;;;;;;3.50;99.90;;;;;;5020089;28;20479;-84
2022/02/19 04:20:22;;;;;;;0.60;0.60;;;4.30;99.90;;;;;;5030810;28;19924;-83
2022/02/19 04:22:51;;;;;;;0.60;0.60;;;3.60;99.90;;;;;;5037766;28;20124;-83
2022/02/19 04:25:17;;;;;;;0.73;0.73;;;3.60;99.90;;;;;;5003400;28;20128;-82
2022/02/19 04:27:42;;;;;;;0.70;0.70;;;3.60;99.90;;;;;;5031552;28;20134;-83
2022/02/19 04:30:09;;;;;;;0.68;0.68;;;3.50;99.90;;;;;;5014946;28;20517;-85
2022/02/19 04:32:35;;;;;;;0.70;0.70;;;3.40;99.90;;;;;;5032249;28;20103;-83
2022/02/19 04:35:00;;;;;;;0.70;0.70;;;3.30;99.90;;;;;;5018400;28;20057;-82
2022/02/19 04:37:26;;;;;;;0.70;0.70;;;3.30;99.90;;;;;;4998833;28;20068;-83
2022/02/19 04:39:52;;;;;;;0.60;0.60;;;3.40;99.90;;;;;;5031795;28;20080;-82
2022/02/19 04:42:18;;;;;;;0.80;0.80;;;3.40;99.90;;;;;;5030733;28;20048;-82
2022/02/19 04:44:43;;;;;;;0.60;0.60;;;3.40;99.90;;;;;;5036316;28;20133;-84
2022/02/19 04:47:09;;;;;;;0.65;0.65;;;3.50;99.90;;;;;;5040873;28;20449;-83
2022/02/19 04:49:35;;;;;;;0.60;0.60;;;3.80;99.90;;;;;;4984716;28;20091;-83
2022/02/19 04:52:00;;;;;;;0.70;0.70;;;3.50;99.90;;;;;;5035254;28;20041;-81
2022/02/19 04:54:26;;;;;;;0.65;0.65;;;3.50;99.90;;;;;;5034232;28;20044;-83
2022/02/19 04:56:52;;;;;;;0.75;0.75;;;3.40;99.90;;;;;;5036724;28;20050;-83
2022/02/19 04:59:17;;;;;;;0.68;0.68;;;3.40;99.90;;;;;;5031701;28;20053;-81
2022/02/19 05:01:43;;;;;;;0.60;0.60;;;3.40;99.90;;;;;;5014594;28;20483;-81
2022/02/19 05:04:09;;;;;;;0.80;0.80;;;4.10;99.90;;;;;;5030138;28;20041;-83
2022/02/19 05:06:35;;;;;;;0.80;0.80;;;3.30;99.90;;;;;;5015571;28;20038;-83
2022/02/19 05:09:00;;;;;;;0.60;0.60;;;3.10;99.90;;;;;;5030791;28;20040;-82
2022/02/19 05:11:26;;;;;;;0.60;0.60;;;3.80;99.90;;;;;;5014794;28;20046;-81
2022/02/19 05:13:52;;;;;;;0.70;0.70;;;2.80;99.90;;;;;;5015064;28;20056;-84
2022/02/19 05:16:17;;;;;;;0.70;0.70;;;2.90;99.90;;;;;;5014171;28;20045;-83
2022/02/19 05:18:43;;;;;;;0.60;0.60;;;2.80;99.90;;;;;;5033465;28;20098;-82
2022/02/19 05:21:09;;;;;;;0.80;0.80;;;2.90;99.90;;;;;;5022557;28;20063;-81
2022/02/19 05:23:35;;;;;;;0.75;0.75;;;2.90;99.90;;;;;;5017166;28;20372;-81
2022/02/19 05:26:01;;;;;;;;;;;3.10;99.90;;;;;;5015929;28;20042;-84
2022/02/19 05:28:27;;;;;;;0.80;0.80;;;2.80;99.90;;;;;;5029354;28;20252;-82
2022/02/19 05:30:52;;;;;;;0.70;0.70;;;3.30;99.90;;;;;;5020721;28;20037;-83
2022/02/19 05:33:18;;;;;;;0.80;0.80;;;2.70;99.90;;;;;;5030018;28;20045;-82
2022/02/19 05:35:45;;;;;;;0.60;0.60;;;2.60;99.90;;;;;;5023179;28;20041;-83
2022/02/19 05:38:11;;;;;;;0.73;0.73;;;2.50;99.90;;;;;;5031352;28;20462;-84
2022/02/19 05:40:36;;;;;;;0.80;0.80;;;2.40;99.90;;;;;;5030354;28;20116;-86
2022/02/19 05:43:04;;;;;;;0.70;0.70;;;2.40;99.90;;;;;;5012912;28;20041;-83
2022/02/19 05:45:31;;;;;;;0.70;0.70;;;2.40;99.90;;;;;;5007006;28;20399;-84
2022/02/19 05:47:58;;;;;;;0.63;0.63;;;2.40;99.90;;;;;;5031362;28;20117;-83
2022/02/19 05:50:25;;;;;;;0.82;0.82;;;2.50;99.90;;;;;;5039630;28;20042;-88
2022/02/19 05:52:51;;;;;;;0.65;0.65;;;2.50;99.90;;;;;;5016084;28;20434;-84
2022/02/19 05:55:17;;;;;;;0.80;0.80;;;2.60;99.90;;;;;;4996585;28;20045;-84
2022/02/19 05:57:43;;;;;;;0.60;0.60;;;2.60;99.90;;;;;;5030306;28;20041;-85
2022/02/19 06:00:10;;;;;;;0.70;0.70;;;2.60;99.90;;;;;;5022741;28;20494;-82
2022/02/19 06:02:36;;;;;;;0.80;0.80;;;2.70;99.90;;;;;;4998309;28;20120;-84
2022/02/19 06:05:02;;;;;;;;;;;3.00;99.90;;;;;;5035011;28;20060;-83
2022/02/19 06:07:27;;;;;;;0.70;0.70;;;2.90;99.90;;;;;;5030245;28;19929;-84
2022/02/19 06:09:53;;;;;;;0.65;0.65;;;3.00;99.90;;;;;;5028088;28;20371;-84
2022/02/19 06:12:19;;;;;;;0.70;0.70;;;3.10;99.90;;;;;;5038076;28;20086;-85
2022/02/19 06:14:44;;;;;;;0.70;0.70;;;3.20;99.90;;;;;;5037093;28;20043;-84
2022/02/19 06:17:10;;;;;;;0.70;0.70;;;3.20;99.90;;;;;;5014372;28;20046;-85
2022/02/19 06:19:36;;;;;;;0.70;0.70;;;3.40;99.90;;;;;;5021076;28;20045;-82
2022/02/19 06:22:02;;;;;;;0.80;0.80;;;3.30;99.90;;;;;;5034052;28;20041;-84
2022/02/19 06:24:29;;;;;;;0.63;0.63;;;3.30;99.90;;;;;;4994759;28;20076;-81
2022/02/19 06:26:54;;;;;;;0.60;0.60;;;3.30;99.90;;;;;;5011068;28;20038;-85
2022/02/19 06:29:20;;;;;;;0.70;0.70;;;3.30;99.90;;;;;;5009797;28;20037;-84
2022/02/19 06:31:46;;;;;;;0.80;0.80;;;3.90;99.90;;;;;;5010851;28;20038;-84
2022/02/19 06:34:12;;;;;;;1.08;1.08;;;3.30;99.90;;;;;;5013824;28;20057;-84
2022/02/19 06:36:37;;;;;;;0.82;0.82;;;3.30;99.90;;;;;;5013240;28;20049;-83
2022/02/19 06:39:03;;;;;;;0.70;0.70;;;3.30;99.90;;;;;;5037310;28;20136;-81
2022/02/19 06:41:29;;;;;;;0.60;0.60;;;3.40;99.90;;;;;;5030687;28;20125;-84
2022/02/19 06:43:54;;;;;;;0.60;0.60;;;3.50;99.90;;;;;;5032371;28;20061;-84
2022/02/19 06:46:20;;;;;;;0.68;0.68;;;3.40;99.90;;;;;;5015776;28;20427;-85
2022/02/19 06:48:46;;;;;;;0.70;0.70;;;3.50;99.90;;;;;;5020758;28;20056;-87
2022/02/19 06:51:12;;;;;;;0.70;0.70;;;3.90;99.90;;;;;;5014182;28;20040;-84
2022/02/19 06:53:38;;;;;;;0.68;0.68;;;3.50;99.90;;;;;;4997148;28;20462;-83
2022/02/19 06:56:04;;;;;;;0.70;0.70;;;3.60;99.90;;;;;;5032176;28;20041;-82
2022/02/19 06:58:30;;;;;;;0.70;0.70;;;3.80;99.90;;;;;;5014421;28;20041;-84
2022/02/19 07:00:56;;;;;;;;;;;3.40;99.90;;;;;;5035542;28;20053;-82
2022/02/19 07:03:22;;;;;;;0.60;0.60;;;3.30;99.90;;;;;;5013865;28;20075;-83
2022/02/19 07:05:51;;;;;;;0.52;0.52;;;3.30;99.90;;;;;;5018045;28;20037;-83
2022/02/19 07:08:21;;;;;;;0.52;0.52;;;3.20;99.90;;;;;;5045983;28;20045;-84
2022/02/19 07:10:47;;;;;;;0.43;0.43;;;3.30;99.90;;;;;;5033639;28;20457;-83
2022/02/19 07:13:13;;;;;;;0.50;0.50;;;3.40;99.90;;;;;;5044674;28;20478;-85
2022/02/19 07:15:40;;;;;;;0.63;0.63;;;3.40;99.90;;;;;;5018106;28;20041;-82
2022/02/19 07:18:06;;;;;;;0.50;0.50;;;3.40;99.90;;;;;;5034420;28;20033;-83
2022/02/19 07:20:35;;;;;;;0.70;0.70;;;3.40;99.90;;;;;;5037144;28;20067;-82
2022/02/19 07:23:01;;;;;;;0.60;0.60;;;3.20;99.90;;;;;;5022661;28;20033;-85
2022/02/19 07:25:30;;;;;;;0.65;0.65;;;3.10;99.90;;;;;;5021414;28;20041;-81
2022/02/19 07:27:55;;;;;;;0.70;0.70;;;3.10;99.90;;;;;;5000462;28;20428;-82
2022/02/19 07:30:38;;;;;;;0.70;0.70;;;3.30;99.90;;;;;;5035174;28;20104;-87
2022/02/19 07:33:08;;;;;;;1.80;1.73;;;3.10;99.90;;;;;;5016171;28;20037;-81
2022/02/19 07:35:34;;;;;;;0.60;0.60;;;3.20;99.90;;;;;;5048268;28;20041;-82
2022/02/19 07:37:59;;;;;;;0.80;0.80;;;3.20;99.90;;;;;;5036601;28;20379;-82
2022/02/19 07:40:25;;;;;;;0.63;0.63;;;3.30;99.90;;;;;;5033245;28;20442;-82
2022/02/19 07:42:52;;;;;;;0.63;0.63;;;3.30;99.90;;;;;;5017103;28;20052;-82
2022/02/19 07:45:18;;;;;;;0.60;0.60;;;3.40;99.90;;;;;;5039150;28;20088;-82
2022/02/19 07:47:44;;;;;;;0.70;0.70;;;3.70;99.90;;;;;;5038481;28;20077;-82
2022/02/19 07:58:23;;;;;;;0.70;0.70;;;3.40;99.90;;;;;;5032549;28;20038;-83
2022/02/19 08:01:17;;;;;;;0.60;0.60;;;3.30;99.90;;;;;;5004765;28;22157;-82
2022/02/19 08:03:54;;;;;;;0.70;0.70;;;3.20;99.90;;;;;;5007510;28;20037;-85
2022/02/19 08:06:57;;;;;;;0.63;0.63;;;3.00;99.90;;;;;;5030216;28;20049;-86
2022/02/19 08:09:23;;;;;;;0.70;0.70;;;2.90;99.90;;;;;;5014708;28;20045;-83
2022/02/19 08:11:49;;;;;;;0.70;0.70;;;2.70;99.90;;;;;;4966442;28;20045;-85
2022/02/19 08:14:23;;;;;;;2.00;1.90;;;4.40;99.90;;;;;;5008231;28;20042;-85
2022/02/19 08:16:49;;;;;;;0.80;0.80;;;2.90;99.90;;;;;;4986653;28;20495;-84
2022/02/19 08:19:16;;;;;;;0.50;0.50;;;3.10;99.90;;;;;;5014497;28;20057;-84
2022/02/19 08:21:42;;;;;;;0.55;0.55;;;3.30;99.90;;;;;;4999614;28;20053;-84
2022/02/19 08:24:08;;;;;;;0.80;0.80;;;3.50;99.90;;;;;;4954802;28;71947;-87
2022/02/19 08:26:36;;;;;;;0.80;0.80;;;3.70;99.90;;;;;;5026991;28;20040;-86
2022/02/19 08:29:21;;;;;;;0.70;0.70;;;3.90;99.90;;;;;;5018153;28;20048;-88
2022/02/19 08:31:47;;;;;;;0.70;0.70;;;3.70;99.90;;;;;;5014367;28;20041;-84
2022/02/19 08:34:20;;;;;;;0.70;0.70;;;5.00;99.90;;;;;;5016799;28;20087;-86
2022/02/19 08:36:56;;;;;;;0.60;0.60;;;3.90;99.90;;;;;;4998730;28;20128;-85
2022/02/19 08:39:23;;;;;;;0.70;0.70;;;4.00;99.90;;;;;;5022637;28;20049;-84
2022/02/19 08:41:49;;;;;;;0.50;0.50;;;4.10;99.90;;;;;;5029690;28;20128;-82
2022/02/19 08:44:18;;;;;;;0.50;0.50;;;4.30;99.90;;;;;;5031450;28;20063;-84
2022/02/19 08:46:44;;;;;;;0.65;0.65;;;3.70;99.90;;;;;;5034017;28;20463;-84
2022/02/19 08:49:10;;;;;;;0.45;0.45;;;4.30;99.90;;;;;;5014590;28;20103;-83
2022/02/19 08:51:38;;;;;;;0.95;0.95;;;4.00;99.90;;;;;;5002956;28;20406;-85
2022/02/19 08:54:04;;;;;;;0.60;0.60;;;3.30;99.90;;;;;;4983904;28;20046;-81
2022/02/19 08:56:30;;;;;;;0.70;0.70;;;4.00;99.90;;;;;;4997571;28;20040;-83
2022/02/19 08:58:58;;;;;;;0.70;0.70;;;4.00;99.90;;;;;;5013397;28;20487;-84
2022/02/19 09:01:27;;;;;;;0.70;0.70;;;4.00;99.90;;;;;;5019332;28;20053;-85
2022/02/19 09:03:53;;;;;;;0.50;0.50;;;4.00;99.90;;;;;;5031360;28;20080;-85
2022/02/19 09:09:23;;;;;;;0.50;0.50;;;5.00;99.90;;;;;;5033828;28;19971;-86
2022/02/19 09:11:55;;;;;;;0.55;0.55;;;4.00;99.90;;;;;;5017550;28;20191;-86
2022/02/19 09:14:21;;;;;;;0.70;0.70;;;5.40;99.90;;;;;;5013898;28;20065;-85
2022/02/19 09:16:47;;;;;;;0.50;0.50;;;6.10;99.90;;;;;;5029883;28;20456;-85
2022/02/19 09:19:20;;;;;;;0.95;0.95;;;4.50;99.90;;;;;;5030291;28;20041;-84
2022/02/19 09:21:46;;;;;;;24.67;1.95;;;4.60;99.90;;;;;;5033149;28;20055;-86
2022/02/19 09:24:11;;;;;;;;;;;4.80;99.90;;;;;;5034939;28;20042;-84
2022/02/19 09:26:37;;;;;;;0.50;0.50;;;4.90;99.90;;;;;;5025849;28;20404;-83
2022/02/19 09:29:03;;;;;;;4.32;4.13;;;5.10;99.90;;;;;;5036425;28;20041;-82
2022/02/19 09:31:29;;;;;;;0.57;0.57;;;5.30;99.90;;;;;;5015781;28;20159;-84
2022/02/19 09:33:54;;;;;;;5.53;1.83;;;5.70;99.90;;;;;;5014994;28;20118;-83
2022/02/19 09:36:20;;;;;;;0.60;0.60;;;5.40;99.90;;;;;;5015459;28;20554;-84
2022/02/19 09:38:48;;;;;;;0.60;0.60;;;5.40;99.90;;;;;;5011268;28;20095;-83
2022/02/19 09:41:14;;;;;;;1.23;1.23;;;5.60;99.90;;;;;;4996254;28;20958;-84
2022/02/19 09:43:43;;;;;;;0.60;0.60;;;5.40;99.90;;;;;;5035608;28;20142;-81
2022/02/19 09:46:12;;;;;;;0.50;0.50;;;5.30;99.90;;;;;;4986630;28;20045;-82
2022/02/19 09:48:45;;;;;;;0.60;0.60;;;5.50;99.90;;;;;;5029615;28;20087;-86
2022/02/19 09:51:11;;;;;;;0.52;0.52;;;5.30;99.90;;;;;;5031239;28;20124;-86
2022/02/19 09:53:38;;;;;;;0.50;0.50;;;5.40;99.90;;;;;;5013738;28;20065;-82
2022/02/19 09:56:05;;;;;;;0.35;0.35;;;6.40;99.90;;;;;;4994409;28;20495;-81
2022/02/19 09:58:33;;;;;;;0.50;0.50;;;5.40;99.90;;;;;;5023681;28;20056;-82
2022/02/19 10:01:23;;;;;;;1.10;1.05;;;5.40;99.90;;;;;;5009558;28;20091;-83
2022/02/19 10:04:01;;;;;;;0.80;0.80;;;5.30;99.90;;;;;;4994305;28;20045;-84
2022/02/19 10:06:30;;;;;;;0.50;0.50;;;5.50;99.90;;;;;;5031140;28;20108;-85
2022/02/19 10:09:18;;;;;;;0.60;0.60;;;5.70;99.90;;;;;;5043663;28;20049;-83
2022/02/19 10:11:46;;;;;;;0.55;0.55;;;5.30;99.90;;;;;;5016402;28;20045;-85
2022/02/19 10:15:04;;;;;;;0.60;0.60;;;5.40;99.90;;;;;;5014280;28;20099;-87
2022/02/19 10:17:30;;;;;;;0.70;0.70;;;5.20;99.90;;;;;;5028334;28;20058;-84
2022/02/19 10:20:02;;;;;;;1.17;0.95;;;6.00;99.90;;;;;;5028566;28;20377;-81
2022/02/19 10:22:33;;;;;;;1.30;1.13;;;5.40;99.90;;;;;;5007134;28;20049;-80
2022/02/19 10:25:02;;;;;;;0.70;0.70;;;5.50;99.90;;;;;;5012807;28;20033;-83
2022/02/19 10:27:57;;;;;;;0.60;0.60;;;5.50;99.90;;;;;;5037006;28;20037;-83
2022/02/19 10:30:29;;;;;;;0.60;0.60;;;5.50;99.90;;;;;;5041922;28;20068;-83
2022/02/19 10:33:07;;;;;;;0.63;0.63;;;5.50;99.90;;;;;;4998984;28;20042;-85
2022/02/19 10:35:40;;;;;;;1.13;1.13;;;5.60;99.90;;;;;;5012068;28;20042;-83
2022/02/19 10:38:08;;;;;;;0.55;0.55;;;5.60;99.90;;;;;;5018839;28;20364;-85
2022/02/19 10:40:54;;;;;;;0.70;0.70;;;5.70;99.90;;;;;;5019271;28;20092;-81
2022/02/19 10:43:33;;;;;;;0.60;0.60;;;5.70;99.90;;;;;;5051495;28;20470;-86
2022/02/19 10:46:13;;;;;;;0.60;0.60;;;5.90;99.90;;;;;;5034698;28;20172;-85
2022/02/19 10:48:40;;;;;;;0.60;0.60;;;6.10;99.90;;;;;;5038021;28;20042;-87
2022/02/19 10:51:49;;;;;;;0.60;0.60;;;6.10;99.90;;;;;;5016603;28;20125;-85
2022/02/19 10:54:24;;;;;;;0.60;0.60;;;4.90;99.90;;;;;;5023778;28;20037;-84
2022/02/19 10:56:50;;;;;;;2.60;2.50;;;5.90;99.90;;;;;;5042124;28;20041;-81
2022/02/19 10:59:16;;;;;;;0.57;0.57;;;5.80;99.90;;;;;;5031583;28;20043;-80
2022/02/19 11:01:50;;;;;;;0.45;0.45;;;5.70;99.90;;;;;;5013198;28;20073;-82
2022/02/19 11:04:21;;;;;;;0.65;0.65;;;5.60;99.90;;;;;;5028003;28;20457;-81
2022/02/19 11:06:48;;;;;;;0.70;0.70;;;7.00;99.90;;;;;;5031560;28;20049;-81
2022/02/19 11:09:16;;;;;;;0.70;0.70;;;5.50;99.90;;;;;;5008882;28;20077;-83
2022/02/19 11:11:44;;;;;;;0.50;0.50;;;5.40;99.90;;;;;;5034320;28;20095;-84
2022/02/19 11:14:12;;;;;;;0.57;0.57;;;5.30;99.90;;;;;;5020906;28;20072;-81
2022/02/19 11:16:39;;;;;;;0.63;0.63;;;5.40;99.90;;;;;;5014610;28;20100;-80
2022/02/19 11:19:05;;;;;;;0.68;0.68;;;5.60;99.90;;;;;;5035024;28;20046;-80
2022/02/19 11:21:33;;;;;;;0.57;0.57;;;5.60;99.90;;;;;;5038771;28;20053;-79
2022/02/19 11:24:02;;;;;;;1.13;1.13;;;5.40;99.90;;;;;;5040455;28;20052;-78
2022/02/19 11:26:29;;;;;;;0.60;0.60;;;5.40;99.90;;;;;;5040122;28;20391;-79
2022/02/19 11:29:13;;;;;;;1.45;1.35;;;5.50;99.90;;;;;;5034509;28;20052;-82
2022/02/19 11:31:42;;;;;;;0.57;0.57;;;5.60;99.90;;;;;;5041985;28;20103;-79
2022/02/19 11:34:10;;;;;;;0.77;0.77;;;5.60;99.90;;;;;;5019497;28;20128;-81
2022/02/19 11:36:36;;;;;;;0.60;0.60;;;5.70;99.90;;;;;;5017003;28;20136;-80
2022/02/19 11:39:04;;;;;;;0.60;0.60;;;5.80;99.90;;;;;;5018239;28;20132;-78
2022/02/19 11:41:43;;;;;;;0.60;0.60;;;5.80;99.90;;;;;;5037330;28;20050;-80
2022/02/19 11:44:15;;;;;;;1.92;1.83;;;5.90;99.90;;;;;;5033295;28;20049;-79
2022/02/19 11:46:41;;;;;;;0.70;0.70;;;5.90;99.90;;;;;;5032972;28;20095;-81
2022/02/19 11:49:24;;;;;;;0.40;0.40;;;5.80;99.90;;;;;;5018901;28;20041;-81
2022/02/19 11:52:15;;;;;;;0.70;0.70;;;5.80;99.90;;;;;;5037029;28;20120;-82
2022/02/19 11:54:41;;;;;;;0.70;0.70;;;5.80;99.90;;;;;;5034682;28;20033;-80
2022/02/19 11:57:31;;;;;;;0.70;0.70;;;6.20;99.90;;;;;;5015759;28;20148;-78
2022/02/19 11:59:57;;;;;;;0.60;0.60;;;5.60;99.90;;;;;;5031377;28;20080;-79
2022/02/19 12:02:24;;;;;;;2.28;1.13;;;5.40;99.90;;;;;;5033870;28;20041;-79
2022/02/19 12:05:08;;;;;;;;;;;5.30;99.90;;;;;;5032991;28;20044;-80
2022/02/19 12:07:57;;;;;;;0.55;0.55;;;5.30;99.90;;;;;;5038677;28;20396;-81
2022/02/19 12:10:22;;;;;;;0.68;0.68;;;5.50;99.90;;;;;;5044989;28;20063;-80
2022/02/19 12:13:08;;;;;;;0.60;0.60;;;5.70;99.90;;;;;;5047925;28;20037;-80
2022/02/19 12:15:35;;;;;;;0.60;0.60;;;5.80;99.90;;;;;;5038374;28;20042;-80
2022/02/19 12:18:58;;;;;;;1.38;1.35;;;6.00;99.90;;;;;;5032294;28;20034;-85
2022/02/19 12:21:33;;;;;;;0.60;0.60;;;6.00;99.90;;;;;;5022614;28;20053;-79
2022/02/19 12:24:19;;;;;;;0.65;0.65;;;6.10;99.90;;;;;;5014982;28;20049;-78
2022/02/19 12:26:57;;;;;;;0.60;0.60;;;6.30;99.90;;;;;;5026519;28;20419;-82
2022/02/19 12:29:51;;;;;;;0.90;0.90;;;6.20;99.90;;;;;;5013698;28;20080;-82
2022/02/19 12:32:22;;;;;;;0.77;0.77;;;6.10;99.90;;;;;;5022718;28;20041;-83
2022/02/19 12:34:53;;;;;;;0.60;0.60;;;6.10;99.90;;;;;;5010423;28;20050;-79
2022/02/19 12:37:33;;;;;;;0.60;0.60;;;6.10;99.90;;;;;;5020043;28;20102;-82
2022/02/19 12:40:17;;;;;;;0.63;0.63;;;6.00;99.90;;;;;;5023284;28;20383;-81
2022/02/19 12:42:48;;;;;;;0.50;0.50;;;6.20;99.90;;;;;;5032526;28;20041;-81
2022/02/19 12:45:15;;;;;;;0.60;0.60;;;6.20;99.90;;;;;;5018183;28;20134;-79
2022/02/19 12:47:41;;;;;;;0.50;0.50;;;6.40;99.90;;;;;;5012089;28;20041;-82
2022/02/19 12:50:12;;;;;;;0.57;0.57;;;6.50;99.90;;;;;;5030409;28;20355;-82
2022/02/19 12:52:39;;;;;;;0.60;0.60;;;6.80;99.90;;;;;;5016542;28;20033;-85
2022/02/19 12:55:12;;;;;;;0.60;0.60;;;7.00;99.90;;;;;;5029161;28;20103;-83
2022/02/19 12:57:41;;;;;;;0.40;0.40;;;7.20;99.90;;;;;;5015657;28;20552;-82
2022/02/19 13:00:08;;;;;;;0.50;0.50;;;8.90;99.90;;;;;;5013286;28;20081;-82
2022/02/19 13:02:35;;;;;;;0.50;0.50;;;7.40;99.90;;;;;;5029468;28;20049;-82
2022/02/19 13:05:09;;;;;;;0.52;0.52;;;7.40;99.90;;;;;;5037168;28;20045;-82
2022/02/19 13:07:35;;;;;;;0.32;0.32;;;7.40;99.90;;;;;;5013898;28;20041;-81
2022/02/19 13:10:01;;;;;;;;;;;7.40;99.90;;;;;;5015538;28;20033;-83
2022/02/19 13:12:33;;;;;;;0.50;0.50;;;7.30;99.90;;;;;;5027439;28;19924;-81
2022/02/19 13:15:03;;;;;;;0.40;0.40;;;7.20;99.90;;;;;;5033401;28;20778;-82
2022/02/19 13:17:32;;;;;;;0.85;0.85;;;7.10;99.90;;;;;;5030768;28;20057;-83
2022/02/19 13:20:18;;;;;;;0.50;0.50;;;6.90;99.90;;;;;;5026518;28;20583;-80